Time;durP1;ratioP1;P1;durP2;ratioP2;P2;SDS_P1;SDS_P2;PMS_P1;PMS_P2;Temp;Humidity;BMP_temperature;BMP_pressure;BME280_temperature;BME280_humidity;BME280_pressure;Samples;Min_cycle;Max_cycle;Signal;HPM_P1;HPM_P2
2023/05/15 00:01:54;;;;;;;;;;;;;;;-140.72;100.00;52729.75;5088350;28;19920;-71
2023/05/15 00:04:19;;;;;;;;;;;;;;;-140.72;100.00;52713.50;5089653;28;19920;-70
2023/05/15 00:06:45;;;;;;;;;;;;;;;-140.72;100.00;52733.78;5083293;28;19924;-70
2023/05/15 00:09:10;;;;;;;;;;;;;;;-140.72;100.00;52713.50;5097616;28;19985;-71
2023/05/15 00:11:35;;;;;;;;;;;;;;;-140.72;100.00;52739.88;5094176;28;20329;-71
2023/05/15 00:14:00;;;;;;;;;;;;;;;-140.72;100.00;52756.13;5090778;28;19919;-71
2023/05/15 00:16:26;;;;;;;;;;;;;;;-140.72;100.00;52727.72;5088822;28;19921;-70
2023/05/15 00:18:51;;;;;;;;;;;;;;;-140.72;100.00;52758.16;5087692;28;19942;-70
2023/05/15 00:21:16;;;;;;;;;;;;;;;-140.72;100.00;52731.75;5088743;28;20450;-70
2023/05/15 00:23:41;;;;;;;;;;;;;;;-140.72;100.00;52750.03;5085716;28;19916;-70
2023/05/15 00:26:07;;;;;;;;;;;;;;;-140.72;100.00;52719.59;5085379;28;19965;-71
2023/05/15 00:28:32;;;;;;;;;;;;;;;-140.72;100.00;52729.75;5096303;28;19973;-70
2023/05/15 00:30:57;;;;;;;;;;;;;;;-140.72;100.00;52739.88;5094186;28;20397;-70
2023/05/15 00:33:22;;;;;;;;;;;;;;;-140.72;100.00;52752.06;5083154;28;19927;-71
2023/05/15 00:35:48;;;;;;;;;;;;;;;-140.72;100.00;52737.84;5086988;28;20307;-70
2023/05/15 00:38:13;;;;;;;;;;;;;;;-140.72;100.00;52770.31;5087825;28;19926;-70
2023/05/15 00:40:39;;;;;;;;;;;;;;;-140.72;100.00;52731.75;5086537;28;19926;-71
2023/05/15 00:43:05;;;;;;;;;;;;;;;-140.72;100.00;52756.13;5079053;28;19921;-71
2023/05/15 00:45:30;;;;;;;;;;;;;;;-140.72;100.00;52721.63;5093838;28;19927;-71
2023/05/15 00:47:57;;;;;;;;;;;;;;;-140.72;100.00;52735.81;5087011;28;19928;-71
2023/05/15 00:50:22;;;;;;;;;;;;;;;-140.72;100.00;52758.16;5081127;28;20323;-70
2023/05/15 00:52:47;;;;;;;;;;;;;;;-140.72;100.00;52764.25;5086423;28;19942;-71
2023/05/15 00:55:13;;;;;;;;;;;;;;;-140.72;100.00;52756.13;5089040;28;19966;-71
2023/05/15 00:57:39;;;;;;;;;;;;;;;-140.72;100.00;52762.22;5085052;28;20281;-70
2023/05/15 01:00:15;;;;;;;;;;;;;;;-140.72;100.00;52792.66;5090147;28;19969;-71
2023/05/15 01:02:40;;;;;;;;;;;;;;;-140.72;100.00;52748.00;5091339;28;19928;-71
2023/05/15 01:05:07;;;;;;;;;;;;;;;-140.72;100.00;52764.25;5095272;28;19920;-71
2023/05/15 01:07:39;;;;;;;;;;;;;;;-140.72;100.00;52737.84;5079784;28;19924;-70
2023/05/15 01:10:05;;;;;;;;;;;;;;;-140.72;100.00;52754.09;5085637;28;21627;-71
2023/05/15 01:12:31;;;;;;;;;;;;;;;-140.72;100.00;52766.25;5088961;28;19920;-71
2023/05/15 01:14:56;;;;;;;;;;;;;;;-140.72;100.00;52739.88;5087202;28;19923;-71
2023/05/15 01:17:21;;;;;;;;;;;;;;;-140.72;100.00;52780.47;5079707;28;19920;-71
2023/05/15 01:19:49;;;;;;;;;;;;;;;-140.72;100.00;52782.50;5093284;27;20042;-70
2023/05/15 01:22:14;;;;;;;;;;;;;;;-140.72;100.00;52748.00;5092208;28;19920;-70
2023/05/15 01:24:58;;;;;;;;;;;;;;;-140.72;100.00;52770.31;5087729;28;19920;-70
2023/05/15 01:27:38;;;;;;;;;;;;;;;-140.72;100.00;52790.63;5084476;28;19921;-70
2023/05/15 01:30:10;;;;;;;;;;;;;;;-140.72;100.00;52735.81;5092155;28;19920;-71
2023/05/15 01:32:53;;;;;;;;;;;;;;;-140.72;100.00;52770.31;5087663;28;20366;-70
2023/05/15 01:35:18;;;;;;;;;;;;;;;-140.72;100.00;52774.38;5086499;28;19927;-70
2023/05/15 01:37:44;;;;;;;;;;;;;;;-140.72;100.00;52780.47;5086108;28;19920;-71
2023/05/15 01:40:12;;;;;;;;;;;;;;;-140.72;100.00;52764.25;5091031;28;20015;-70
2023/05/15 01:42:40;;;;;;;;;;;;;;;-140.72;100.00;52762.22;5083612;28;19926;-70
2023/05/15 01:45:08;;;;;;;;;;;;;;;-140.72;100.00;52782.50;5087127;28;19925;-71
2023/05/15 01:47:36;;;;;;;;;;;;;;;-140.72;100.00;52780.47;5082902;28;19946;-70
2023/05/15 01:50:03;;;;;;;;;;;;;;;-140.72;100.00;52764.25;5085834;28;19967;-71
2023/05/15 01:52:29;;;;;;;;;;;;;;;-140.72;100.00;52748.00;5080181;28;20297;-71
2023/05/15 01:54:55;;;;;;;;;;;;;;;-140.72;100.00;52770.31;5089857;28;20007;-70
2023/05/15 01:57:22;;;;;;;;;;;;;;;-140.72;100.00;52762.22;5090797;28;20365;-71
2023/05/15 01:59:48;;;;;;;;;;;;;;;-140.72;100.00;52737.84;5093891;28;19928;-71
2023/05/15 02:02:14;;;;;;;;;;;;;;;-140.72;100.00;52735.81;5092670;28;19920;-71
2023/05/15 02:04:40;;;;;;;;;;;;;;;-140.72;100.00;52731.75;5083553;28;19928;-70
2023/05/15 02:07:05;;;;;;;;;;;;;;;-140.72;100.00;52719.59;5088125;28;19927;-71
2023/05/15 02:09:31;;;;;;;;;;;;;;;-140.72;100.00;52729.75;5114410;27;20260;-70
2023/05/15 02:11:57;;;;;;;;;;;;;;;-140.72;100.00;52772.34;5084880;28;19920;-70
2023/05/15 02:14:23;;;;;;;;;;;;;;;-140.72;100.00;52764.25;5085531;28;19919;-70
2023/05/15 02:16:48;;;;;;;;;;;;;;;-140.72;100.00;52772.34;5102755;28;19927;-71
2023/05/15 02:19:14;;;;;;;;;;;;;;;-140.72;100.00;52782.50;5093941;28;20442;-71
2023/05/15 02:21:39;;;;;;;;;;;;;;;-140.72;100.00;52764.25;5089482;28;19916;-71
2023/05/15 02:24:04;;;;;;;;;;;;;;;-140.72;100.00;52776.41;5091220;28;19973;-71
2023/05/15 02:26:49;;;;;;;;;;;;;;;-140.72;100.00;52772.34;5090670;28;21010;-70
2023/05/15 02:29:23;;;;;;;;;;;;;;;-140.72;100.00;52796.72;5086940;28;19927;-70
2023/05/15 02:32:07;;;;;;;;;;;;;;;-140.72;100.00;52772.34;5087370;28;19923;-71
2023/05/15 02:34:32;;;;;;;;;;;;;;;-140.72;100.00;52760.19;5083379;28;19932;-71
2023/05/15 02:36:59;;;;;;;;;;;;;;;-140.72;100.00;52784.53;5091013;28;19920;-71
2023/05/15 02:39:28;;;;;;;;;;;;;;;-140.72;100.00;52780.47;5097684;28;20358;-71
2023/05/15 02:41:55;;;;;;;;;;;;;;;-140.72;100.00;52804.81;5091183;28;19927;-71
2023/05/15 02:44:21;;;;;;;;;;;;;;;-140.72;100.00;52784.53;5094587;28;20012;-71
2023/05/15 02:46:47;;;;;;;;;;;;;;;-140.72;100.00;52748.00;5089768;28;19928;-70
2023/05/15 02:49:13;;;;;;;;;;;;;;;-140.72;100.00;52786.56;5082346;28;19974;-71
2023/05/15 02:51:39;;;;;;;;;;;;;;;-140.72;100.00;52792.66;5089552;28;19920;-71
2023/05/15 02:54:05;;;;;;;;;;;;;;;-140.72;100.00;52792.66;5092723;28;19916;-70
2023/05/15 02:56:30;;;;;;;;;;;;;;;-140.72;100.00;52770.31;5094000;28;19953;-70
2023/05/15 02:58:55;;;;;;;;;;;;;;;-140.72;100.00;52774.38;5089320;28;20796;-70
2023/05/15 03:01:21;;;;;;;;;;;;;;;-140.72;100.00;52796.72;5081808;28;19950;-71
2023/05/15 03:03:46;;;;;;;;;;;;;;;-140.72;100.00;52780.47;5089186;28;19969;-70
2023/05/15 03:06:23;;;;;;;;;;;;;;;-140.72;100.00;52776.41;5088379;28;19970;-71
2023/05/15 03:08:49;;;;;;;;;;;;;;;-140.72;100.00;52802.78;5102018;27;20044;-71
2023/05/15 03:11:14;;;;;;;;;;;;;;;-140.72;100.00;52784.53;5091327;28;19920;-71
2023/05/15 03:13:39;;;;;;;;;;;;;;;-140.72;100.00;52788.59;5094911;27;20240;-71
2023/05/15 03:16:04;;;;;;;;;;;;;;;-140.72;100.00;52788.59;5084981;28;20059;-71
2023/05/15 03:18:30;;;;;;;;;;;;;;;-140.72;100.00;52766.25;5089961;28;19926;-71
2023/05/15 03:20:55;;;;;;;;;;;;;;;-140.72;100.00;52762.22;5090307;28;19923;-71
2023/05/15 03:23:20;;;;;;;;;;;;;;;-140.72;100.00;52788.59;5084676;28;19943;-71
2023/05/15 03:25:45;;;;;;;;;;;;;;;-140.72;100.00;52810.91;5086726;28;19916;-70
2023/05/15 03:28:11;;;;;;;;;;;;;;;-140.72;100.00;52788.59;5088186;28;19920;-71
2023/05/15 03:30:36;;;;;;;;;;;;;;;-140.72;100.00;52806.84;5090202;28;19924;-70
2023/05/15 03:33:02;;;;;;;;;;;;;;;-140.72;100.00;52780.47;5083591;28;20390;-71
2023/05/15 03:35:28;;;;;;;;;;;;;;;-140.72;100.00;52794.69;5084425;28;20072;-71
2023/05/15 03:37:53;;;;;;;;;;;;;;;-140.72;100.00;52796.72;5086960;28;19923;-71
2023/05/15 03:40:18;;;;;;;;;;;;;;;-140.72;100.00;52800.75;5085651;28;20393;-70
2023/05/15 03:42:44;;;;;;;;;;;;;;;-140.72;100.00;52823.09;5095489;28;19967;-70
2023/05/15 03:45:09;;;;;;;;;;;;;;;-140.72;100.00;52778.44;5084323;28;19920;-70
2023/05/15 03:47:34;;;;;;;;;;;;;;;-140.72;100.00;52786.56;5089101;28;20401;-70
2023/05/15 03:49:59;;;;;;;;;;;;;;;-140.72;100.00;52764.25;5090339;28;19928;-70
2023/05/15 03:52:25;;;;;;;;;;;;;;;-140.72;100.00;52760.19;5089227;28;19920;-70
2023/05/15 03:54:50;;;;;;;;;;;;;;;-140.72;100.00;52739.88;5082736;28;19952;-70
2023/05/15 03:57:15;;;;;;;;;;;;;;;-140.72;100.00;52790.63;5083385;28;19924;-70
2023/05/15 03:59:40;;;;;;;;;;;;;;;-140.72;100.00;52817.00;5089165;28;19927;-70
2023/05/15 04:02:05;;;;;;;;;;;;;;;-140.72;100.00;52788.59;5080238;28;19921;-70
2023/05/15 04:04:31;;;;;;;;;;;;;;;-140.72;100.00;52764.25;5088798;28;19927;-70
2023/05/15 04:06:56;;;;;;;;;;;;;;;-140.72;100.00;52760.19;5089168;28;20455;-70
2023/05/15 04:09:21;;;;;;;;;;;;;;;-140.72;100.00;52745.97;5093321;28;20405;-70
2023/05/15 04:11:47;;;;;;;;;;;;;;;-140.72;100.00;52713.50;5088368;28;20383;-70
2023/05/15 04:14:12;;;;;;;;;;;;;;;-140.72;100.00;52721.63;5094332;28;19916;-70
2023/05/15 04:16:37;;;;;;;;;;;;;;;-140.72;100.00;52739.88;5088716;28;19962;-70
2023/05/15 04:19:02;;;;;;;;;;;;;;;-140.72;100.00;52737.84;5088843;28;19960;-70
2023/05/15 04:21:29;;;;;;;;;;;;;;;-140.72;100.00;52776.41;5084759;28;19927;-69
2023/05/15 04:23:54;;;;;;;;;;;;;;;-140.72;100.00;52756.13;5117522;27;19921;-72
2023/05/15 04:26:19;;;;;;;;;;;;;;;-140.72;100.00;52733.78;5082451;28;19916;-73
2023/05/15 04:28:45;;;;;;;;;;;;;;;-140.72;100.00;52770.31;5093532;28;19916;-72
2023/05/15 04:31:10;;;;;;;;;;;;;;;-140.72;100.00;52723.66;5085665;28;19916;-74
2023/05/15 04:33:37;;;;;;;;;;;;;;;-140.72;100.00;52729.75;5093226;28;19916;-72
2023/05/15 04:36:03;;;;;;;;;;;;;;;-140.72;100.00;52802.78;5082583;28;20011;-72
2023/05/15 04:38:29;;;;;;;;;;;;;;;-140.72;100.00;52715.53;5109533;28;19970;-72
2023/05/15 04:40:59;;;;;;;;;;;;;;;-140.72;100.00;52723.66;5084638;28;19996;-72
2023/05/15 04:43:24;;;;;;;;;;;;;;;-140.72;100.00;52788.59;5095941;28;19916;-72
2023/05/15 04:45:50;;;;;;;;;;;;;;;-140.72;100.00;52743.94;5093334;28;20342;-73
2023/05/15 04:48:17;;;;;;;;;;;;;;;-140.72;100.00;52737.84;5084267;28;19923;-72
2023/05/15 04:50:44;;;;;;;;;;;;;;;-140.72;100.00;52770.31;5082719;28;20382;-72
2023/05/15 04:53:09;;;;;;;;;;;;;;;-140.72;100.00;52721.63;5088661;28;20026;-71
2023/05/15 04:55:35;;;;;;;;;;;;;;;-140.72;100.00;52752.06;5091599;28;19927;-72
2023/05/15 04:58:00;;;;;;;;;;;;;;;-140.72;100.00;52693.22;5088753;28;19920;-71
2023/05/15 05:00:26;;;;;;;;;;;;;;;-140.72;100.00;52695.25;5094709;28;19927;-72
2023/05/15 05:02:51;;;;;;;;;;;;;;;-140.72;100.00;52723.66;5094047;28;19920;-72
2023/05/15 05:05:16;;;;;;;;;;;;;;;-140.72;100.00;52705.38;5091320;28;19924;-71
2023/05/15 05:07:43;;;;;;;;;;;;;;;-140.72;100.00;52719.59;5094803;28;19923;-70
2023/05/15 05:10:08;;;;;;;;;;;;;;;-140.72;100.00;52743.94;5090558;28;20339;-71
2023/05/15 05:12:34;;;;;;;;;;;;;;;-140.72;100.00;52699.31;5091946;28;19924;-81
2023/05/15 05:14:59;;;;;;;;;;;;;;;-140.72;100.00;52719.59;5092436;28;20065;-70
2023/05/15 05:17:24;;;;;;;;;;;;;;;-140.72;100.00;52739.88;5092478;28;19927;-70
2023/05/15 05:19:49;;;;;;;;;;;;;;;-140.72;100.00;52739.88;5090969;28;20011;-71
2023/05/15 05:22:14;;;;;;;;;;;;;;;-140.72;100.00;52703.34;5087132;28;20301;-71
2023/05/15 05:24:40;;;;;;;;;;;;;;;-140.72;100.00;52719.59;5096676;28;19924;-69
2023/05/15 05:27:05;;;;;;;;;;;;;;;-140.72;100.00;52731.75;5088362;28;19927;-70
2023/05/15 05:29:31;;;;;;;;;;;;;;;-140.72;100.00;52721.63;5101446;28;19927;-71
2023/05/15 05:31:56;;;;;;;;;;;;;;;-140.72;100.00;52729.75;5084654;28;20359;-73
2023/05/15 05:34:21;;;;;;;;;;;;;;;-140.72;100.00;52674.94;5086400;28;20058;-74
2023/05/15 05:36:47;;;;;;;;;;;;;;;-140.72;100.00;52674.94;5089171;28;20026;-73
2023/05/15 05:39:12;;;;;;;;;;;;;;;-140.72;100.00;52689.16;5091008;28;19921;-73
2023/05/15 05:41:38;;;;;;;;;;;;;;;-140.72;100.00;52687.13;5091041;28;19935;-73
2023/05/15 05:44:03;;;;;;;;;;;;;;;-140.72;100.00;52676.97;5090361;28;20383;-72
2023/05/15 05:46:28;;;;;;;;;;;;;;;-140.72;100.00;52672.91;5081035;28;20387;-73
2023/05/15 05:48:53;;;;;;;;;;;;;;;-140.72;100.00;52695.25;5089291;28;19920;-72
2023/05/15 05:51:18;;;;;;;;;;;;;;;-140.72;100.00;52650.59;5088246;28;19916;-73
2023/05/15 05:53:44;;;;;;;;;;;;;;;-140.72;100.00;52626.25;5080643;28;19960;-72
2023/05/15 05:56:09;;;;;;;;;;;;;;;-140.72;100.00;52652.63;5094415;28;19999;-73
2023/05/15 05:58:35;;;;;;;;;;;;;;;-140.72;100.00;52660.75;5088677;28;19916;-73
2023/05/15 06:01:00;;;;;;;;;;;;;;;-140.72;100.00;52652.63;5085843;28;19916;-73
2023/05/15 06:03:25;;;;;;;;;;;;;;;-140.72;100.00;52648.56;5090511;28;19922;-71
2023/05/15 06:05:52;;;;;;;;;;;;;;;-140.72;100.00;52672.91;5092831;28;19920;-72
2023/05/15 06:08:18;;;;;;;;;;;;;;;-140.72;100.00;52662.78;5092970;28;19931;-74
2023/05/15 06:10:44;;;;;;;;;;;;;;;-140.72;100.00;52644.50;5082883;28;19920;-72
2023/05/15 06:13:10;;;;;;;;;;;;;;;-140.72;100.00;52622.19;5096677;28;19943;-70
2023/05/15 06:15:35;;;;;;;;;;;;;;;-140.72;100.00;52668.84;5095211;28;19920;-70
2023/05/15 06:18:00;;;;;;;;;;;;;;;-140.72;100.00;52650.59;5094168;28;19931;-70
2023/05/15 06:20:26;;;;;;;;;;;;;;;-140.72;100.00;52699.31;5086889;28;19916;-70
2023/05/15 06:22:51;;;;;;;;;;;;;;;-140.72;100.00;52644.50;5091179;28;19916;-69
2023/05/15 06:25:17;;;;;;;;;;;;;;;-140.72;100.00;52638.41;5085913;28;20706;-70
2023/05/15 06:27:42;;;;;;;;;;;;;;;-140.72;100.00;52638.41;5090505;28;19938;-70
2023/05/15 06:30:08;;;;;;;;;;;;;;;-140.72;100.00;52618.13;5089787;28;20375;-69
2023/05/15 06:32:33;;;;;;;;;;;;;;;-140.72;100.00;52646.53;5090589;28;19923;-70
2023/05/15 06:34:59;;;;;;;;;;;;;;;-140.72;100.00;52634.38;5094416;28;19920;-70
2023/05/15 06:37:24;;;;;;;;;;;;;;;-140.72;100.00;52666.84;5094665;28;20008;-71
2023/05/15 06:39:49;;;;;;;;;;;;;;;-140.72;100.00;52642.47;5094290;28;20328;-72
2023/05/15 06:42:14;;;;;;;;;;;;;;;-140.72;100.00;52654.66;5091955;28;19916;-71
2023/05/15 06:44:39;;;;;;;;;;;;;;;-140.72;100.00;52640.44;5090998;28;20406;-72
2023/05/15 06:47:05;;;;;;;;;;;;;;;-140.72;100.00;52622.19;5072947;28;19916;-72
2023/05/15 06:49:30;;;;;;;;;;;;;;;-140.72;100.00;52650.59;5077040;28;19923;-72
2023/05/15 06:51:56;;;;;;;;;;;;;;;-140.72;100.00;52648.56;5085007;28;19974;-72
2023/05/15 06:54:21;;;;;;;;;;;;;;;-140.72;100.00;52622.19;5089605;28;20397;-71
2023/05/15 06:56:46;;;;;;;;;;;;;;;-140.72;100.00;52670.88;5091170;28;19997;-71
2023/05/15 06:59:14;;;;;;;;;;;;;;;-140.72;100.00;52644.50;5089010;28;19942;-71
2023/05/15 07:01:39;;;;;;;;;;;;;;;-140.72;100.00;52642.47;5086948;28;19920;-73
2023/05/15 07:04:05;;;;;;;;;;;;;;;-140.72;100.00;52648.56;5083593;28;20502;-73
2023/05/15 07:06:30;;;;;;;;;;;;;;;-140.72;100.00;52652.63;5088287;28;20015;-75
2023/05/15 07:08:56;;;;;;;;;;;;;;;-140.72;100.00;52644.50;5089132;28;19999;-72
2023/05/15 07:11:21;;;;;;;;;;;;;;;-140.72;100.00;52650.59;5090320;28;20382;-72
2023/05/15 07:13:46;;;;;;;;;;;;;;;-140.72;100.00;52610.00;5088070;28;19924;-72
2023/05/15 07:16:12;;;;;;;;;;;;;;;-140.72;100.00;52605.94;5086186;28;19916;-72
2023/05/15 07:18:37;;;;;;;;;;;;;;;-140.72;100.00;52654.66;5081983;28;19924;-72
2023/05/15 07:21:02;;;;;;;;;;;;;;;-140.72;100.00;52618.13;5083444;28;19916;-72
2023/05/15 07:23:27;;;;;;;;;;;;;;;-140.72;100.00;52624.22;5093073;28;19920;-72
2023/05/15 07:25:53;;;;;;;;;;;;;;;-140.72;100.00;52668.84;5088501;28;20389;-73
2023/05/15 07:28:19;;;;;;;;;;;;;;;-140.72;100.00;52648.56;5079077;28;19920;-70
2023/05/15 07:30:44;;;;;;;;;;;;;;;-140.72;100.00;52642.47;5084357;28;19961;-70
2023/05/15 07:33:09;;;;;;;;;;;;;;;-140.72;100.00;52638.41;5088569;28;20272;-70
2023/05/15 07:35:34;;;;;;;;;;;;;;;-140.72;100.00;52624.22;5087056;28;19916;-70
2023/05/15 07:38:00;;;;;;;;;;;;;;;-140.72;100.00;52626.25;5078927;28;19920;-69
2023/05/15 07:40:25;;;;;;;;;;;;;;;-140.72;100.00;52640.44;5090058;28;19916;-70
2023/05/15 07:42:50;;;;;;;;;;;;;;;-140.72;100.00;52648.56;5080049;28;19966;-70
2023/05/15 07:45:15;;;;;;;;;;;;;;;-140.72;100.00;52614.06;5087188;28;19977;-70
2023/05/15 07:47:45;;;;;;;;;;;;;;;-140.72;100.00;52662.78;5085601;28;20007;-70
2023/05/15 07:50:10;;;;;;;;;;;;;;;-140.72;100.00;52610.00;5087418;28;19961;-70
2023/05/15 07:52:36;;;;;;;;;;;;;;;-140.72;100.00;52610.00;5080849;28;20306;-70
2023/05/15 07:55:01;;;;;;;;;;;;;;;-140.72;100.00;52683.06;5087210;28;20022;-70
2023/05/15 07:57:26;;;;;;;;;;;;;;;-140.72;100.00;52610.00;5096322;28;19927;-70
2023/05/15 07:59:52;;;;;;;;;;;;;;;-140.72;100.00;52638.41;5098127;28;19920;-70
2023/05/15 08:02:17;;;;;;;;;;;;;;;-140.72;100.00;52662.78;5090648;28;19974;-70
2023/05/15 08:04:42;;;;;;;;;;;;;;;-140.72;100.00;52650.59;5080022;28;19927;-70
2023/05/15 08:07:07;;;;;;;;;;;;;;;-140.72;100.00;52626.25;5088720;28;19927;-70
2023/05/15 08:09:33;;;;;;;;;;;;;;;-140.72;100.00;52642.47;5090633;28;19956;-70
2023/05/15 08:12:15;;;;;;;;;;;;;;;-140.72;100.00;52648.56;5098718;28;20375;-70
2023/05/15 08:14:40;;;;;;;;;;;;;;;-140.72;100.00;52650.59;5102271;28;19922;-70
2023/05/15 08:17:06;;;;;;;;;;;;;;;-140.72;100.00;52642.47;5092217;28;19924;-70
2023/05/15 08:19:31;;;;;;;;;;;;;;;-140.72;100.00;52634.38;5088114;28;19939;-71
2023/05/15 08:21:56;;;;;;;;;;;;;;;-140.72;100.00;52654.66;5092906;28;19924;-72
2023/05/15 08:24:21;;;;;;;;;;;;;;;-140.72;100.00;52632.34;5094877;28;19920;-72
2023/05/15 08:26:46;;;;;;;;;;;;;;;-140.72;100.00;52630.31;5094608;28;19924;-72
2023/05/15 08:29:11;;;;;;;;;;;;;;;-140.72;100.00;52648.56;5087302;28;19920;-72
2023/05/15 08:31:37;;;;;;;;;;;;;;;-140.72;100.00;52634.38;5095303;28;19923;-72
2023/05/15 08:34:02;;;;;;;;;;;;;;;-140.72;100.00;52634.38;5096422;28;19928;-72
2023/05/15 08:36:27;;;;;;;;;;;;;;;-140.72;100.00;52636.38;5088294;28;19931;-70
2023/05/15 08:38:52;;;;;;;;;;;;;;;-140.72;100.00;52646.53;5091345;28;19943;-72
2023/05/15 08:41:24;;;;;;;;;;;;;;;-140.72;100.00;52618.13;5093404;28;19920;-72
2023/05/15 08:43:51;;;;;;;;;;;;;;;-140.72;100.00;52662.78;5088805;28;20006;-72
2023/05/15 08:46:17;;;;;;;;;;;;;;;-140.72;100.00;52640.44;5088414;28;19924;-72
2023/05/15 08:48:42;;;;;;;;;;;;;;;-140.72;100.00;52634.38;5093306;28;19930;-72
2023/05/15 08:51:09;;;;;;;;;;;;;;;-140.72;100.00;52644.50;5091903;28;20015;-72
2023/05/15 08:53:35;;;;;;;;;;;;;;;-140.72;100.00;52626.25;5095894;28;20603;-72
2023/05/15 08:56:00;;;;;;;;;;;;;;;-140.72;100.00;52658.72;5089959;28;19932;-72
2023/05/15 08:58:27;;;;;;;;;;;;;;;-140.72;100.00;52610.00;5086064;28;20021;-72
2023/05/15 09:00:53;;;;;;;;;;;;;;;-140.72;100.00;52654.66;5090165;28;19971;-72
2023/05/15 09:03:21;;;;;;;;;;;;;;;-140.72;100.00;52666.84;5094230;28;19978;-72
2023/05/15 09:05:46;;;;;;;;;;;;;;;-140.72;100.00;52605.94;5089100;28;19963;-72
2023/05/15 09:08:14;;;;;;;;;;;;;;;-140.72;100.00;52646.53;5101777;28;20493;-72
2023/05/15 09:10:39;;;;;;;;;;;;;;;-140.72;100.00;52614.06;5083756;28;19920;-72
2023/05/15 09:13:04;;;;;;;;;;;;;;;-140.72;100.00;52618.13;5088097;28;19921;-72
2023/05/15 09:15:30;;;;;;;;;;;;;;;-140.72;100.00;52638.41;5079782;28;19931;-72
2023/05/15 09:17:55;;;;;;;;;;;;;;;-140.72;100.00;52662.78;5078561;28;19921;-72
2023/05/15 09:20:31;;;;;;;;;;;;;;;-140.72;100.00;52662.78;5091905;28;19920;-72
2023/05/15 09:22:57;;;;;;;;;;;;;;;-140.72;100.00;52638.41;5088348;28;19921;-72
2023/05/15 09:25:38;;;;;;;;;;;;;;;-140.72;100.00;52660.75;5097683;28;19928;-72
2023/05/15 09:28:04;;;;;;;;;;;;;;;-140.72;100.00;52666.84;5079405;28;20328;-72
2023/05/15 09:30:30;;;;;;;;;;;;;;;-140.72;100.00;52628.28;5082938;28;19916;-74
2023/05/15 09:32:59;;;;;;;;;;;;;;;-140.72;100.00;52628.28;5090981;28;20397;-72
2023/05/15 09:35:28;;;;;;;;;;;;;;;-140.72;100.00;52652.63;5094743;28;19958;-73
2023/05/15 09:37:58;;;;;;;;;;;;;;;-140.72;100.00;52632.34;5090867;28;20010;-71
2023/05/15 09:40:27;;;;;;;;;;;;;;;-140.72;100.00;52618.13;5092346;28;20373;-71
2023/05/15 09:42:52;;;;;;;;;;;;;;;-140.72;100.00;52628.28;5094152;28;19919;-71
2023/05/15 09:45:17;;;;;;;;;;;;;;;-140.72;100.00;52605.94;5093207;28;19920;-70
2023/05/15 09:47:43;;;;;;;;;;;;;;;-140.72;100.00;52614.06;5081899;28;19927;-71
2023/05/15 09:50:08;;;;;;;;;;;;;;;-140.72;100.00;52603.94;5086939;28;19927;-70
2023/05/15 09:52:35;;;;;;;;;;;;;;;-140.72;100.00;52577.53;5098790;28;19923;-71
2023/05/15 09:55:00;;;;;;;;;;;;;;;-140.72;100.00;52605.94;5093059;28;20186;-71
2023/05/15 09:57:26;;;;;;;;;;;;;;;-140.72;100.00;52557.25;5084279;28;20019;-74
2023/05/15 09:59:51;;;;;;;;;;;;;;;-140.72;100.00;52573.50;5091798;28;19920;-72
2023/05/15 10:02:34;;;;;;;;;;;;;;;-140.72;100.00;52581.59;5096090;28;19935;-69
2023/05/15 10:04:59;;;;;;;;;;;;;;;-140.72;100.00;52599.88;5085776;27;19927;-70
2023/05/15 10:07:27;;;;;;;;;;;;;;;-140.72;100.00;52628.28;5089067;28;19942;-70
2023/05/15 10:09:52;;;;;;;;;;;;;;;-140.72;100.00;52626.25;5088649;28;19916;-70
2023/05/15 10:12:18;;;;;;;;;;;;;;;-140.72;100.00;52626.25;5096538;28;19942;-70
2023/05/15 10:14:43;;;;;;;;;;;;;;;-140.72;100.00;52601.91;5088182;28;20310;-70
2023/05/15 10:17:08;;;;;;;;;;;;;;;-140.72;100.00;52603.94;5093328;28;19920;-70
2023/05/15 10:19:35;;;;;;;;;;;;;;;-140.72;100.00;52589.72;5090058;28;19966;-71
2023/05/15 10:22:00;;;;;;;;;;;;;;;-140.72;100.00;52622.19;5091005;28;19919;-70
2023/05/15 10:24:28;;;;;;;;;;;;;;;-140.72;100.00;52597.84;5088422;28;20378;-70
2023/05/15 10:26:54;;;;;;;;;;;;;;;-140.72;100.00;52622.19;5092174;28;19928;-70
2023/05/15 10:29:21;;;;;;;;;;;;;;;-140.72;100.00;52603.94;5097507;28;20282;-70
2023/05/15 10:31:47;;;;;;;;;;;;;;;-140.72;100.00;52614.06;5096050;28;19964;-71
2023/05/15 10:34:13;;;;;;;;;;;;;;;-140.72;100.00;52610.00;5102242;28;20304;-71
2023/05/15 10:36:38;;;;;;;;;;;;;;;-140.72;100.00;52597.84;5095010;28;19923;-71
2023/05/15 10:39:05;;;;;;;;;;;;;;;-140.72;100.00;52605.94;5095441;28;19916;-71
2023/05/15 10:41:35;;;;;;;;;;;;;;;-140.72;100.00;52605.94;5089337;28;21309;-71
2023/05/15 10:44:00;;;;;;;;;;;;;;;-140.72;100.00;52607.97;5091379;28;19970;-73
2023/05/15 10:46:30;;;;;;;;;;;;;;;-140.72;100.00;52605.94;5081755;28;19962;-72
2023/05/15 10:48:56;;;;;;;;;;;;;;;-140.72;100.00;52626.25;5111497;27;19928;-70
2023/05/15 10:51:26;;;;;;;;;;;;;;;-140.72;100.00;52642.47;5089096;28;19928;-70
2023/05/15 10:53:52;;;;;;;;;;;;;;;-140.72;100.00;52591.75;5097290;28;19928;-70
2023/05/15 10:56:17;;;;;;;;;;;;;;;-140.72;100.00;52587.69;5101144;28;19935;-70
2023/05/15 10:58:49;;;;;;;;;;;;;;;-140.72;100.00;52573.50;5110362;28;20006;-70
2023/05/15 11:01:30;;;;;;;;;;;;;;;-140.72;100.00;52559.28;5099102;28;20003;-70
2023/05/15 11:04:06;;;;;;;;;;;;;;;-140.72;100.00;52569.44;5095848;28;19931;-70
2023/05/15 11:06:31;;;;;;;;;;;;;;;-140.72;100.00;52583.63;5091407;28;20294;-70
2023/05/15 11:09:15;;;;;;;;;;;;;;;-140.72;100.00;52591.75;5088039;28;19928;-70
2023/05/15 11:11:57;;;;;;;;;;;;;;;-140.72;100.00;52575.50;5094799;28;19927;-70
2023/05/15 11:14:22;;;;;;;;;;;;;;;-140.72;100.00;52549.13;5088389;28;20018;-70
2023/05/15 11:16:54;;;;;;;;;;;;;;;-140.72;100.00;52595.81;5100387;28;19990;-70
2023/05/15 11:19:28;;;;;;;;;;;;;;;-140.72;100.00;52555.22;5088677;28;19955;-70
2023/05/15 11:21:57;;;;;;;;;;;;;;;-140.72;100.00;52585.66;5090569;28;19960;-72
2023/05/15 11:24:29;;;;;;;;;;;;;;;-140.72;100.00;52571.47;5089650;28;19920;-72
2023/05/15 11:26:58;;;;;;;;;;;;;;;-140.72;100.00;52573.50;5101103;28;19963;-71
2023/05/15 11:29:23;;;;;;;;;;;;;;;-140.72;100.00;52532.91;5085373;28;19920;-70
2023/05/15 11:31:48;;;;;;;;;;;;;;;-140.72;100.00;52514.63;5092942;28;19926;-70
2023/05/15 11:34:14;;;;;;;;;;;;;;;-140.72;100.00;52559.28;5088662;28;20297;-70
2023/05/15 11:36:42;;;;;;;;;;;;;;;-140.72;100.00;52559.28;5080568;28;19924;-70
2023/05/15 11:39:10;;;;;;;;;;;;;;;-140.72;100.00;52573.50;5086177;28;19929;-70
2023/05/15 11:41:36;;;;;;;;;;;;;;;-140.72;100.00;52573.50;5089552;28;20413;-70
2023/05/15 11:44:01;;;;;;;;;;;;;;;-140.72;100.00;52593.78;5084567;28;19960;-70
2023/05/15 11:46:27;;;;;;;;;;;;;;;-140.72;100.00;52573.50;5084597;28;19924;-71
2023/05/15 11:48:53;;;;;;;;;;;;;;;-140.72;100.00;52555.22;5086313;28;20371;-72
2023/05/15 11:51:23;;;;;;;;;;;;;;;-140.72;100.00;52530.88;5081283;28;19923;-71
2023/05/15 11:53:50;;;;;;;;;;;;;;;-140.72;100.00;52530.88;5086368;28;20078;-72
2023/05/15 11:56:20;;;;;;;;;;;;;;;-140.72;100.00;52508.56;5080914;28;19920;-71
2023/05/15 11:58:54;;;;;;;;;;;;;;;-140.72;100.00;52488.25;5092207;28;20396;-72
2023/05/15 12:01:19;;;;;;;;;;;;;;;-140.72;100.00;52532.91;5092576;28;19920;-71
2023/05/15 12:03:48;;;;;;;;;;;;;;;-140.72;100.00;52492.31;5087125;28;19920;-71
2023/05/15 12:06:14;;;;;;;;;;;;;;;-140.72;100.00;52504.50;5094639;28;19923;-71
2023/05/15 12:08:40;;;;;;;;;;;;;;;-140.72;100.00;52522.75;5093498;28;19927;-71
2023/05/15 12:11:06;;;;;;;;;;;;;;;-140.72;100.00;52567.41;5091921;28;19980;-71
2023/05/15 12:13:32;;;;;;;;;;;;;;;-140.72;100.00;52593.78;5089869;28;19920;-71
2023/05/15 12:15:57;;;;;;;;;;;;;;;-140.72;100.00;52571.47;5092073;28;19924;-71